sensor_id;sensor_type;location;lat;lon;timestamp;P1;durP1;ratioP1;P2;durP2;ratioP2
64011;SDS011;50211;52.768;12.124;2023-07-31T00:01:54;4.70;;;2.08;;
64011;SDS011;50211;52.768;12.124;2023-07-31T00:04:20;3.97;;;1.90;;
64011;SDS011;50211;52.768;12.124;2023-07-31T00:06:45;2.35;;;1.60;;
64011;SDS011;50211;52.768;12.124;2023-07-31T00:09:11;5.25;;;1.92;;
64011;SDS011;50211;52.768;12.124;2023-07-31T00:11:36;4.25;;;1.70;;
64011;SDS011;50211;52.768;12.124;2023-07-31T00:14:02;3.88;;;1.80;;
64011;SDS011;50211;52.768;12.124;2023-07-31T00:16:27;4.18;;;1.58;;
64011;SDS011;50211;52.768;12.124;2023-07-31T00:18:53;7.20;;;2.03;;
64011;SDS011;50211;52.768;12.124;2023-07-31T00:21:18;6.32;;;2.00;;
64011;SDS011;50211;52.768;12.124;2023-07-31T00:23:44;5.75;;;1.60;;
64011;SDS011;50211;52.768;12.124;2023-07-31T00:26:09;6.82;;;2.13;;
64011;SDS011;50211;52.768;12.124;2023-07-31T00:28:35;4.85;;;1.67;;
64011;SDS011;50211;52.768;12.124;2023-07-31T00:31:00;4.70;;;1.77;;
64011;SDS011;50211;52.768;12.124;2023-07-31T00:33:27;4.32;;;1.88;;
64011;SDS011;50211;52.768;12.124;2023-07-31T00:35:53;5.10;;;1.70;;
64011;SDS011;50211;52.768;12.124;2023-07-31T00:38:18;4.75;;;2.10;;
64011;SDS011;50211;52.768;12.124;2023-07-31T00:40:44;2.35;;;1.60;;
64011;SDS011;50211;52.768;12.124;2023-07-31T00:43:09;2.25;;;1.77;;
64011;SDS011;50211;52.768;12.124;2023-07-31T00:45:35;7.35;;;1.98;;
64011;SDS011;50211;52.768;12.124;2023-07-31T00:48:00;3.40;;;1.50;;
64011;SDS011;50211;52.768;12.124;2023-07-31T00:50:26;5.93;;;2.22;;
64011;SDS011;50211;52.768;12.124;2023-07-31T00:52:53;2.33;;;1.42;;
64011;SDS011;50211;52.768;12.124;2023-07-31T00:55:19;4.50;;;1.83;;
64011;SDS011;50211;52.768;12.124;2023-07-31T00:57:47;3.38;;;1.90;;
64011;SDS011;50211;52.768;12.124;2023-07-31T01:00:14;5.00;;;2.00;;
64011;SDS011;50211;52.768;12.124;2023-07-31T01:02:39;8.65;;;2.13;;
64011;SDS011;50211;52.768;12.124;2023-07-31T01:05:05;3.97;;;2.10;;
64011;SDS011;50211;52.768;12.124;2023-07-31T01:07:35;2.45;;;1.92;;
64011;SDS011;50211;52.768;12.124;2023-07-31T01:10:16;3.63;;;2.08;;
64011;SDS011;50211;52.768;12.124;2023-07-31T01:12:46;3.35;;;2.15;;
64011;SDS011;50211;52.768;12.124;2023-07-31T01:15:13;5.45;;;1.83;;
64011;SDS011;50211;52.768;12.124;2023-07-31T01:17:40;3.22;;;2.10;;
64011;SDS011;50211;52.768;12.124;2023-07-31T01:20:10;6.20;;;2.20;;
64011;SDS011;50211;52.768;12.124;2023-07-31T01:22:58;5.03;;;2.35;;
64011;SDS011;50211;52.768;12.124;2023-07-31T01:26:12;10.35;;;2.45;;
64011;SDS011;50211;52.768;12.124;2023-07-31T01:28:55;7.90;;;2.40;;
64011;SDS011;50211;52.768;12.124;2023-07-31T01:31:26;5.72;;;2.38;;
64011;SDS011;50211;52.768;12.124;2023-07-31T01:33:56;6.68;;;2.58;;
64011;SDS011;50211;52.768;12.124;2023-07-31T01:36:24;5.60;;;2.60;;
64011;SDS011;50211;52.768;12.124;2023-07-31T01:38:50;4.20;;;2.60;;
64011;SDS011;50211;52.768;12.124;2023-07-31T01:41:16;5.40;;;2.50;;
64011;SDS011;50211;52.768;12.124;2023-07-31T01:43:43;4.93;;;2.72;;
64011;SDS011;50211;52.768;12.124;2023-07-31T01:46:09;3.85;;;2.80;;
64011;SDS011;50211;52.768;12.124;2023-07-31T01:48:34;5.80;;;2.55;;
64011;SDS011;50211;52.768;12.124;2023-07-31T01:51:01;7.90;;;3.30;;
64011;SDS011;50211;52.768;12.124;2023-07-31T01:53:27;7.45;;;3.17;;
64011;SDS011;50211;52.768;12.124;2023-07-31T01:55:54;5.20;;;2.38;;
64011;SDS011;50211;52.768;12.124;2023-07-31T01:58:19;6.75;;;2.72;;
64011;SDS011;50211;52.768;12.124;2023-07-31T02:00:45;3.95;;;2.45;;
64011;SDS011;50211;52.768;12.124;2023-07-31T02:03:11;9.80;;;2.50;;
64011;SDS011;50211;52.768;12.124;2023-07-31T02:05:37;5.53;;;2.58;;
64011;SDS011;50211;52.768;12.124;2023-07-31T02:08:12;6.20;;;2.90;;
64011;SDS011;50211;52.768;12.124;2023-07-31T02:10:37;4.50;;;2.50;;
64011;SDS011;50211;52.768;12.124;2023-07-31T02:13:03;4.28;;;2.08;;
64011;SDS011;50211;52.768;12.124;2023-07-31T02:15:29;4.47;;;2.78;;
64011;SDS011;50211;52.768;12.124;2023-07-31T02:17:55;9.30;;;2.58;;
64011;SDS011;50211;52.768;12.124;2023-07-31T02:20:21;4.70;;;2.42;;
64011;SDS011;50211;52.768;12.124;2023-07-31T02:22:46;7.43;;;2.50;;
64011;SDS011;50211;52.768;12.124;2023-07-31T02:25:12;6.70;;;2.60;;
64011;SDS011;50211;52.768;12.124;2023-07-31T02:27:37;6.85;;;2.65;;
64011;SDS011;50211;52.768;12.124;2023-07-31T02:30:03;4.63;;;2.50;;
64011;SDS011;50211;52.768;12.124;2023-07-31T02:32:28;6.78;;;2.60;;
64011;SDS011;50211;52.768;12.124;2023-07-31T02:34:54;7.75;;;2.72;;
64011;SDS011;50211;52.768;12.124;2023-07-31T02:37:19;5.20;;;2.35;;
64011;SDS011;50211;52.768;12.124;2023-07-31T02:39:45;6.75;;;2.75;;
64011;SDS011;50211;52.768;12.124;2023-07-31T02:42:10;5.80;;;2.00;;
64011;SDS011;50211;52.768;12.124;2023-07-31T02:44:36;8.98;;;3.10;;
64011;SDS011;50211;52.768;12.124;2023-07-31T02:47:01;6.22;;;2.85;;
64011;SDS011;50211;52.768;12.124;2023-07-31T02:49:28;7.32;;;2.45;;
64011;SDS011;50211;52.768;12.124;2023-07-31T02:51:53;6.05;;;2.50;;
64011;SDS011;50211;52.768;12.124;2023-07-31T02:54:19;6.47;;;2.55;;
64011;SDS011;50211;52.768;12.124;2023-07-31T02:56:46;4.10;;;2.20;;
64011;SDS011;50211;52.768;12.124;2023-07-31T02:59:12;4.70;;;2.25;;
64011;SDS011;50211;52.768;12.124;2023-07-31T03:01:37;6.82;;;2.70;;
64011;SDS011;50211;52.768;12.124;2023-07-31T03:04:03;8.45;;;2.53;;
64011;SDS011;50211;52.768;12.124;2023-07-31T03:06:29;5.45;;;2.60;;
64011;SDS011;50211;52.768;12.124;2023-07-31T03:08:54;6.25;;;2.50;;
64011;SDS011;50211;52.768;12.124;2023-07-31T03:11:20;6.70;;;2.17;;
64011;SDS011;50211;52.768;12.124;2023-07-31T03:13:45;8.88;;;2.65;;
64011;SDS011;50211;52.768;12.124;2023-07-31T03:16:11;4.22;;;2.17;;
64011;SDS011;50211;52.768;12.124;2023-07-31T03:18:36;10.18;;;2.88;;
64011;SDS011;50211;52.768;12.124;2023-07-31T03:21:02;4.30;;;2.40;;
64011;SDS011;50211;52.768;12.124;2023-07-31T03:23:27;9.63;;;2.80;;
64011;SDS011;50211;52.768;12.124;2023-07-31T03:26:00;4.72;;;2.53;;
64011;SDS011;50211;52.768;12.124;2023-07-31T03:28:28;8.40;;;2.70;;
64011;SDS011;50211;52.768;12.124;2023-07-31T03:30:54;5.55;;;2.78;;
64011;SDS011;50211;52.768;12.124;2023-07-31T03:33:20;7.68;;;3.08;;
64011;SDS011;50211;52.768;12.124;2023-07-31T03:35:46;5.75;;;2.90;;
64011;SDS011;50211;52.768;12.124;2023-07-31T03:38:11;4.80;;;2.92;;
64011;SDS011;50211;52.768;12.124;2023-07-31T03:40:36;4.05;;;3.25;;
64011;SDS011;50211;52.768;12.124;2023-07-31T03:43:02;9.07;;;3.60;;
64011;SDS011;50211;52.768;12.124;2023-07-31T03:45:27;7.30;;;3.70;;
64011;SDS011;50211;52.768;12.124;2023-07-31T03:47:53;9.65;;;3.20;;
64011;SDS011;50211;52.768;12.124;2023-07-31T03:50:19;4.80;;;3.28;;
64011;SDS011;50211;52.768;12.124;2023-07-31T03:52:45;12.18;;;3.88;;
64011;SDS011;50211;52.768;12.124;2023-07-31T03:55:11;5.40;;;3.22;;
64011;SDS011;50211;52.768;12.124;2023-07-31T03:57:36;5.70;;;3.72;;
64011;SDS011;50211;52.768;12.124;2023-07-31T04:00:02;6.82;;;3.25;;
64011;SDS011;50211;52.768;12.124;2023-07-31T04:02:28;5.13;;;3.08;;
64011;SDS011;50211;52.768;12.124;2023-07-31T04:04:54;6.80;;;3.45;;
64011;SDS011;50211;52.768;12.124;2023-07-31T04:07:19;9.93;;;3.30;;
64011;SDS011;50211;52.768;12.124;2023-07-31T04:09:45;5.95;;;3.15;;
64011;SDS011;50211;52.768;12.124;2023-07-31T04:12:10;7.93;;;3.40;;
64011;SDS011;50211;52.768;12.124;2023-07-31T04:14:36;5.45;;;3.50;;
64011;SDS011;50211;52.768;12.124;2023-07-31T04:17:02;6.60;;;3.33;;
64011;SDS011;50211;52.768;12.124;2023-07-31T04:19:27;7.45;;;3.67;;
64011;SDS011;50211;52.768;12.124;2023-07-31T04:21:53;4.75;;;3.17;;
64011;SDS011;50211;52.768;12.124;2023-07-31T04:24:18;4.28;;;2.83;;
64011;SDS011;50211;52.768;12.124;2023-07-31T04:26:49;8.00;;;3.28;;
64011;SDS011;50211;52.768;12.124;2023-07-31T04:29:15;5.32;;;2.85;;
64011;SDS011;50211;52.768;12.124;2023-07-31T04:31:41;4.57;;;3.20;;
64011;SDS011;50211;52.768;12.124;2023-07-31T04:34:06;6.72;;;2.90;;
64011;SDS011;50211;52.768;12.124;2023-07-31T04:36:33;5.75;;;2.90;;
64011;SDS011;50211;52.768;12.124;2023-07-31T04:38:59;6.97;;;3.35;;
64011;SDS011;50211;52.768;12.124;2023-07-31T04:41:26;5.75;;;3.03;;
64011;SDS011;50211;52.768;12.124;2023-07-31T04:43:52;5.45;;;3.20;;
64011;SDS011;50211;52.768;12.124;2023-07-31T04:46:18;9.23;;;3.03;;
64011;SDS011;50211;52.768;12.124;2023-07-31T04:48:43;5.88;;;3.72;;
64011;SDS011;50211;52.768;12.124;2023-07-31T04:51:09;10.80;;;3.38;;
64011;SDS011;50211;52.768;12.124;2023-07-31T04:53:35;6.13;;;3.40;;
64011;SDS011;50211;52.768;12.124;2023-07-31T04:56:01;5.40;;;2.70;;
64011;SDS011;50211;52.768;12.124;2023-07-31T04:58:26;5.28;;;3.22;;
64011;SDS011;50211;52.768;12.124;2023-07-31T05:00:52;6.38;;;3.13;;
64011;SDS011;50211;52.768;12.124;2023-07-31T05:03:17;4.95;;;2.80;;
64011;SDS011;50211;52.768;12.124;2023-07-31T05:05:43;9.23;;;3.05;;
64011;SDS011;50211;52.768;12.124;2023-07-31T05:08:08;8.48;;;3.17;;
64011;SDS011;50211;52.768;12.124;2023-07-31T05:10:34;6.95;;;3.40;;
64011;SDS011;50211;52.768;12.124;2023-07-31T05:12:59;4.97;;;3.08;;
64011;SDS011;50211;52.768;12.124;2023-07-31T05:15:25;6.47;;;3.00;;
64011;SDS011;50211;52.768;12.124;2023-07-31T05:17:50;7.30;;;2.67;;
64011;SDS011;50211;52.768;12.124;2023-07-31T05:20:16;7.05;;;3.22;;
64011;SDS011;50211;52.768;12.124;2023-07-31T05:22:41;4.07;;;3.00;;
64011;SDS011;50211;52.768;12.124;2023-07-31T05:25:07;4.80;;;2.80;;
64011;SDS011;50211;52.768;12.124;2023-07-31T05:27:33;8.02;;;2.97;;
64011;SDS011;50211;52.768;12.124;2023-07-31T05:29:58;5.05;;;2.50;;
64011;SDS011;50211;52.768;12.124;2023-07-31T05:32:24;8.88;;;3.03;;
64011;SDS011;50211;52.768;12.124;2023-07-31T05:34:52;6.03;;;3.22;;
64011;SDS011;50211;52.768;12.124;2023-07-31T05:37:18;6.80;;;3.08;;
64011;SDS011;50211;52.768;12.124;2023-07-31T05:39:44;4.28;;;2.80;;
64011;SDS011;50211;52.768;12.124;2023-07-31T05:42:10;6.70;;;3.08;;
64011;SDS011;50211;52.768;12.124;2023-07-31T05:44:35;5.72;;;3.42;;
64011;SDS011;50211;52.768;12.124;2023-07-31T05:47:01;5.95;;;3.10;;
64011;SDS011;50211;52.768;12.124;2023-07-31T05:49:26;6.18;;;3.30;;
64011;SDS011;50211;52.768;12.124;2023-07-31T05:51:52;9.00;;;3.42;;
64011;SDS011;50211;52.768;12.124;2023-07-31T05:54:17;5.25;;;3.33;;
64011;SDS011;50211;52.768;12.124;2023-07-31T05:56:43;4.65;;;3.33;;
64011;SDS011;50211;52.768;12.124;2023-07-31T05:59:09;8.93;;;3.58;;
64011;SDS011;50211;52.768;12.124;2023-07-31T06:01:37;6.38;;;2.92;;
64011;SDS011;50211;52.768;12.124;2023-07-31T06:04:02;7.53;;;3.55;;
64011;SDS011;50211;52.768;12.124;2023-07-31T06:06:28;9.48;;;3.20;;
64011;SDS011;50211;52.768;12.124;2023-07-31T06:08:54;5.75;;;2.80;;
64011;SDS011;50211;52.768;12.124;2023-07-31T06:11:20;9.68;;;3.22;;
64011;SDS011;50211;52.768;12.124;2023-07-31T06:13:45;4.97;;;3.20;;
64011;SDS011;50211;52.768;12.124;2023-07-31T06:16:13;4.97;;;3.35;;
64011;SDS011;50211;52.768;12.124;2023-07-31T06:18:38;10.15;;;3.05;;
64011;SDS011;50211;52.768;12.124;2023-07-31T06:21:04;6.43;;;2.67;;
64011;SDS011;50211;52.768;12.124;2023-07-31T06:23:29;7.25;;;3.25;;
64011;SDS011;50211;52.768;12.124;2023-07-31T06:25:55;4.43;;;3.00;;
64011;SDS011;50211;52.768;12.124;2023-07-31T06:28:20;7.78;;;3.38;;
64011;SDS011;50211;52.768;12.124;2023-07-31T06:30:46;4.80;;;3.08;;
64011;SDS011;50211;52.768;12.124;2023-07-31T06:33:12;7.32;;;3.35;;
64011;SDS011;50211;52.768;12.124;2023-07-31T06:35:37;4.93;;;3.30;;
64011;SDS011;50211;52.768;12.124;2023-07-31T06:38:03;6.32;;;2.80;;
64011;SDS011;50211;52.768;12.124;2023-07-31T06:40:29;3.90;;;2.70;;
64011;SDS011;50211;52.768;12.124;2023-07-31T06:42:54;7.40;;;2.85;;
64011;SDS011;50211;52.768;12.124;2023-07-31T06:45:20;7.75;;;3.80;;
64011;SDS011;50211;52.768;12.124;2023-07-31T06:47:46;8.95;;;2.70;;
64011;SDS011;50211;52.768;12.124;2023-07-31T06:50:12;4.35;;;2.25;;
64011;SDS011;50211;52.768;12.124;2023-07-31T06:52:37;4.10;;;2.05;;
64011;SDS011;50211;52.768;12.124;2023-07-31T06:55:04;11.43;;;2.13;;
64011;SDS011;50211;52.768;12.124;2023-07-31T06:57:45;5.75;;;2.30;;
64011;SDS011;50211;52.768;12.124;2023-07-31T07:00:11;3.70;;;1.83;;
64011;SDS011;50211;52.768;12.124;2023-07-31T07:02:37;3.38;;;2.30;;
64011;SDS011;50211;52.768;12.124;2023-07-31T07:05:03;4.85;;;1.98;;
64011;SDS011;50211;52.768;12.124;2023-07-31T07:07:28;5.75;;;1.88;;
64011;SDS011;50211;52.768;12.124;2023-07-31T07:09:54;2.72;;;1.77;;
64011;SDS011;50211;52.768;12.124;2023-07-31T07:12:19;3.95;;;2.03;;
64011;SDS011;50211;52.768;12.124;2023-07-31T07:14:45;4.80;;;2.17;;
64011;SDS011;50211;52.768;12.124;2023-07-31T07:17:13;2.42;;;1.67;;
64011;SDS011;50211;52.768;12.124;2023-07-31T07:19:40;3.95;;;2.25;;
64011;SDS011;50211;52.768;12.124;2023-07-31T07:22:06;4.13;;;1.85;;
64011;SDS011;50211;52.768;12.124;2023-07-31T07:24:32;4.85;;;2.00;;
64011;SDS011;50211;52.768;12.124;2023-07-31T07:26:57;3.08;;;1.75;;
64011;SDS011;50211;52.768;12.124;2023-07-31T07:29:23;3.20;;;1.85;;
64011;SDS011;50211;52.768;12.124;2023-07-31T07:31:48;2.30;;;1.70;;
64011;SDS011;50211;52.768;12.124;2023-07-31T07:34:14;3.00;;;1.60;;
64011;SDS011;50211;52.768;12.124;2023-07-31T07:36:39;2.65;;;1.73;;
64011;SDS011;50211;52.768;12.124;2023-07-31T07:39:05;2.42;;;1.60;;
64011;SDS011;50211;52.768;12.124;2023-07-31T07:41:30;2.08;;;1.58;;
64011;SDS011;50211;52.768;12.124;2023-07-31T07:43:56;2.50;;;1.70;;
64011;SDS011;50211;52.768;12.124;2023-07-31T07:46:21;6.63;;;2.05;;
64011;SDS011;50211;52.768;12.124;2023-07-31T07:48:48;6.97;;;1.70;;
64011;SDS011;50211;52.768;12.124;2023-07-31T07:51:13;2.03;;;1.77;;
64011;SDS011;50211;52.768;12.124;2023-07-31T07:53:39;1.75;;;1.33;;
64011;SDS011;50211;52.768;12.124;2023-07-31T07:56:04;2.67;;;1.60;;
64011;SDS011;50211;52.768;12.124;2023-07-31T07:58:30;3.40;;;1.40;;
64011;SDS011;50211;52.768;12.124;2023-07-31T08:00:55;1.83;;;1.42;;
64011;SDS011;50211;52.768;12.124;2023-07-31T08:03:21;2.17;;;1.58;;
64011;SDS011;50211;52.768;12.124;2023-07-31T08:05:46;2.38;;;1.50;;
64011;SDS011;50211;52.768;12.124;2023-07-31T08:08:15;2.05;;;1.38;;
64011;SDS011;50211;52.768;12.124;2023-07-31T08:10:44;5.43;;;1.55;;
64011;SDS011;50211;52.768;12.124;2023-07-31T08:13:11;5.93;;;1.60;;
64011;SDS011;50211;52.768;12.124;2023-07-31T08:15:37;3.03;;;1.52;;
64011;SDS011;50211;52.768;12.124;2023-07-31T08:18:02;1.55;;;1.40;;
64011;SDS011;50211;52.768;12.124;2023-07-31T08:20:28;2.72;;;1.83;;
64011;SDS011;50211;52.768;12.124;2023-07-31T08:22:53;2.33;;;1.52;;
64011;SDS011;50211;52.768;12.124;2023-07-31T08:25:19;2.15;;;1.00;;
64011;SDS011;50211;52.768;12.124;2023-07-31T08:27:44;1.77;;;1.05;;
64011;SDS011;50211;52.768;12.124;2023-07-31T08:30:11;1.30;;;0.93;;
64011;SDS011;50211;52.768;12.124;2023-07-31T08:32:37;2.85;;;1.10;;
64011;SDS011;50211;52.768;12.124;2023-07-31T08:35:02;1.70;;;1.20;;
64011;SDS011;50211;52.768;12.124;2023-07-31T08:37:28;1.25;;;1.00;;
64011;SDS011;50211;52.768;12.124;2023-07-31T08:39:53;1.90;;;0.95;;
64011;SDS011;50211;52.768;12.124;2023-07-31T08:42:19;1.50;;;1.17;;
64011;SDS011;50211;52.768;12.124;2023-07-31T08:44:46;2.10;;;0.93;;
64011;SDS011;50211;52.768;12.124;2023-07-31T08:47:12;1.48;;;1.00;;
64011;SDS011;50211;52.768;12.124;2023-07-31T08:49:38;1.40;;;0.90;;
64011;SDS011;50211;52.768;12.124;2023-07-31T08:52:05;0.90;;;0.90;;
64011;SDS011;50211;52.768;12.124;2023-07-31T08:54:31;1.05;;;0.90;;
64011;SDS011;50211;52.768;12.124;2023-07-31T08:56:58;1.63;;;1.15;;
64011;SDS011;50211;52.768;12.124;2023-07-31T08:59:24;1.75;;;1.17;;
64011;SDS011;50211;52.768;12.124;2023-07-31T09:01:53;2.50;;;1.15;;
64011;SDS011;50211;52.768;12.124;2023-07-31T09:04:22;2.20;;;1.27;;
64011;SDS011;50211;52.768;12.124;2023-07-31T09:06:48;1.88;;;1.13;;
64011;SDS011;50211;52.768;12.124;2023-07-31T09:09:14;1.80;;;1.55;;
64011;SDS011;50211;52.768;12.124;2023-07-31T09:11:40;1.77;;;1.27;;
64011;SDS011;50211;52.768;12.124;2023-07-31T09:14:08;2.13;;;1.60;;
64011;SDS011;50211;52.768;12.124;2023-07-31T09:16:35;3.28;;;1.10;;
64011;SDS011;50211;52.768;12.124;2023-07-31T09:19:00;1.25;;;1.15;;
64011;SDS011;50211;52.768;12.124;2023-07-31T09:21:30;2.13;;;1.27;;
64011;SDS011;50211;52.768;12.124;2023-07-31T09:23:55;1.83;;;1.33;;
64011;SDS011;50211;52.768;12.124;2023-07-31T09:26:54;1.60;;;1.30;;
64011;SDS011;50211;52.768;12.124;2023-07-31T09:29:18;2.45;;;1.40;;
64011;SDS011;50211;52.768;12.124;2023-07-31T09:31:44;2.50;;;1.80;;
64011;SDS011;50211;52.768;12.124;2023-07-31T09:34:10;2.58;;;1.48;;
64011;SDS011;50211;52.768;12.124;2023-07-31T09:36:40;2.20;;;1.63;;
64011;SDS011;50211;52.768;12.124;2023-07-31T09:39:07;3.30;;;1.70;;
64011;SDS011;50211;52.768;12.124;2023-07-31T09:41:38;2.75;;;1.73;;
64011;SDS011;50211;52.768;12.124;2023-07-31T09:44:05;3.03;;;1.90;;
64011;SDS011;50211;52.768;12.124;2023-07-31T09:46:30;3.20;;;1.65;;
64011;SDS011;50211;52.768;12.124;2023-07-31T09:49:09;2.80;;;1.63;;
64011;SDS011;50211;52.768;12.124;2023-07-31T09:51:36;4.18;;;2.15;;
64011;SDS011;50211;52.768;12.124;2023-07-31T09:54:09;8.40;;;2.50;;
64011;SDS011;50211;52.768;12.124;2023-07-31T09:56:36;6.30;;;2.80;;
64011;SDS011;50211;52.768;12.124;2023-07-31T09:59:04;3.80;;;2.55;;
64011;SDS011;50211;52.768;12.124;2023-07-31T10:01:30;5.57;;;2.58;;
64011;SDS011;50211;52.768;12.124;2023-07-31T10:03:57;4.60;;;2.67;;
64011;SDS011;50211;52.768;12.124;2023-07-31T10:06:24;5.70;;;2.92;;
64011;SDS011;50211;52.768;12.124;2023-07-31T10:08:50;5.13;;;3.03;;
64011;SDS011;50211;52.768;12.124;2023-07-31T10:11:17;3.47;;;2.67;;
64011;SDS011;50211;52.768;12.124;2023-07-31T10:13:43;9.55;;;3.33;;
64011;SDS011;50211;52.768;12.124;2023-07-31T10:16:10;6.97;;;3.60;;
64011;SDS011;50211;52.768;12.124;2023-07-31T10:18:36;6.70;;;2.95;;
64011;SDS011;50211;52.768;12.124;2023-07-31T10:21:03;7.70;;;3.58;;
64011;SDS011;50211;52.768;12.124;2023-07-31T10:23:29;8.73;;;3.42;;
64011;SDS011;50211;52.768;12.124;2023-07-31T10:25:55;8.65;;;4.30;;
64011;SDS011;50211;52.768;12.124;2023-07-31T10:28:23;7.10;;;3.95;;
64011;SDS011;50211;52.768;12.124;2023-07-31T10:30:51;7.40;;;3.90;;
64011;SDS011;50211;52.768;12.124;2023-07-31T10:33:17;5.43;;;3.35;;
64011;SDS011;50211;52.768;12.124;2023-07-31T10:35:44;11.95;;;4.03;;
64011;SDS011;50211;52.768;12.124;2023-07-31T10:38:12;11.95;;;4.78;;
64011;SDS011;50211;52.768;12.124;2023-07-31T10:40:38;6.90;;;4.22;;
64011;SDS011;50211;52.768;12.124;2023-07-31T10:43:04;9.13;;;4.53;;
64011;SDS011;50211;52.768;12.124;2023-07-31T10:45:34;11.90;;;4.50;;
64011;SDS011;50211;52.768;12.124;2023-07-31T10:48:03;13.30;;;4.20;;
64011;SDS011;50211;52.768;12.124;2023-07-31T10:50:30;7.60;;;4.13;;
64011;SDS011;50211;52.768;12.124;2023-07-31T10:53:00;8.88;;;4.82;;
64011;SDS011;50211;52.768;12.124;2023-07-31T10:55:41;7.22;;;4.25;;
64011;SDS011;50211;52.768;12.124;2023-07-31T11:00:41;10.13;;;4.15;;
64011;SDS011;50211;52.768;12.124;2023-07-31T11:03:09;7.60;;;4.10;;
64011;SDS011;50211;52.768;12.124;2023-07-31T11:05:56;6.72;;;4.07;;
64011;SDS011;50211;52.768;12.124;2023-07-31T11:08:27;6.13;;;3.55;;
64011;SDS011;50211;52.768;12.124;2023-07-31T11:13:34;7.20;;;3.88;;
64011;SDS011;50211;52.768;12.124;2023-07-31T11:16:14;10.10;;;4.53;;
64011;SDS011;50211;52.768;12.124;2023-07-31T11:18:41;8.13;;;4.43;;
64011;SDS011;50211;52.768;12.124;2023-07-31T11:21:11;7.05;;;3.72;;
64011;SDS011;50211;52.768;12.124;2023-07-31T11:23:38;6.18;;;3.97;;
64011;SDS011;50211;52.768;12.124;2023-07-31T11:26:05;10.70;;;4.13;;
64011;SDS011;50211;52.768;12.124;2023-07-31T11:28:32;8.73;;;4.00;;
64011;SDS011;50211;52.768;12.124;2023-07-31T11:30:59;6.88;;;3.97;;
64011;SDS011;50211;52.768;12.124;2023-07-31T11:33:24;8.52;;;3.90;;
64011;SDS011;50211;52.768;12.124;2023-07-31T11:35:50;6.65;;;3.80;;
64011;SDS011;50211;52.768;12.124;2023-07-31T11:40:51;6.28;;;3.70;;
64011;SDS011;50211;52.768;12.124;2023-07-31T11:43:19;5.78;;;3.65;;
64011;SDS011;50211;52.768;12.124;2023-07-31T11:45:48;10.80;;;4.20;;
64011;SDS011;50211;52.768;12.124;2023-07-31T11:48:26;9.48;;;4.10;;
64011;SDS011;50211;52.768;12.124;2023-07-31T11:50:54;7.32;;;3.85;;
64011;SDS011;50211;52.768;12.124;2023-07-31T11:53:34;10.40;;;3.60;;
64011;SDS011;50211;52.768;12.124;2023-07-31T11:56:07;6.38;;;3.35;;
64011;SDS011;50211;52.768;12.124;2023-07-31T11:58:36;6.95;;;3.13;;
64011;SDS011;50211;52.768;12.124;2023-07-31T12:01:03;6.25;;;2.85;;
64011;SDS011;50211;52.768;12.124;2023-07-31T12:03:29;3.85;;;2.47;;
64011;SDS011;50211;52.768;12.124;2023-07-31T12:05:55;7.70;;;2.22;;
64011;SDS011;50211;52.768;12.124;2023-07-31T12:08:22;7.40;;;2.20;;
64011;SDS011;50211;52.768;12.124;2023-07-31T12:10:52;4.93;;;2.47;;
64011;SDS011;50211;52.768;12.124;2023-07-31T12:13:23;3.25;;;1.90;;
64011;SDS011;50211;52.768;12.124;2023-07-31T12:15:54;4.63;;;2.00;;
64011;SDS011;50211;52.768;12.124;2023-07-31T12:18:22;5.50;;;2.28;;
64011;SDS011;50211;52.768;12.124;2023-07-31T12:20:53;5.03;;;2.45;;
64011;SDS011;50211;52.768;12.124;2023-07-31T12:23:21;3.58;;;2.05;;
64011;SDS011;50211;52.768;12.124;2023-07-31T12:26:05;3.50;;;2.00;;
64011;SDS011;50211;52.768;12.124;2023-07-31T12:28:36;5.43;;;2.40;;
64011;SDS011;50211;52.768;12.124;2023-07-31T12:31:03;5.97;;;2.70;;
64011;SDS011;50211;52.768;12.124;2023-07-31T12:33:33;3.92;;;2.00;;
64011;SDS011;50211;52.768;12.124;2023-07-31T12:36:03;4.00;;;2.20;;
64011;SDS011;50211;52.768;12.124;2023-07-31T12:38:31;7.45;;;2.50;;
64011;SDS011;50211;52.768;12.124;2023-07-31T12:40:57;3.75;;;2.08;;
64011;SDS011;50211;52.768;12.124;2023-07-31T12:43:22;3.78;;;2.22;;
64011;SDS011;50211;52.768;12.124;2023-07-31T12:45:48;3.53;;;2.53;;
64011;SDS011;50211;52.768;12.124;2023-07-31T12:48:13;4.25;;;2.53;;
64011;SDS011;50211;52.768;12.124;2023-07-31T12:50:39;3.58;;;2.40;;
64011;SDS011;50211;52.768;12.124;2023-07-31T12:53:05;5.70;;;2.42;;
64011;SDS011;50211;52.768;12.124;2023-07-31T12:55:31;6.63;;;2.88;;
64011;SDS011;50211;52.768;12.124;2023-07-31T12:57:59;6.03;;;3.00;;
64011;SDS011;50211;52.768;12.124;2023-07-31T13:00:25;4.35;;;2.20;;
64011;SDS011;50211;52.768;12.124;2023-07-31T13:02:51;3.60;;;2.70;;
64011;SDS011;50211;52.768;12.124;2023-07-31T13:05:16;4.38;;;3.00;;
64011;SDS011;50211;52.768;12.124;2023-07-31T13:07:44;5.13;;;2.42;;
64011;SDS011;50211;52.768;12.124;2023-07-31T13:10:10;3.35;;;2.58;;
64011;SDS011;50211;52.768;12.124;2023-07-31T13:12:35;6.53;;;2.70;;
64011;SDS011;50211;52.768;12.124;2023-07-31T13:15:01;8.05;;;2.90;;
64011;SDS011;50211;52.768;12.124;2023-07-31T13:17:26;7.88;;;2.65;;
64011;SDS011;50211;52.768;12.124;2023-07-31T13:19:52;4.25;;;2.58;;
64011;SDS011;50211;52.768;12.124;2023-07-31T13:22:18;4.40;;;2.60;;
64011;SDS011;50211;52.768;12.124;2023-07-31T13:24:43;7.15;;;3.00;;
64011;SDS011;50211;52.768;12.124;2023-07-31T13:27:08;5.05;;;2.53;;
64011;SDS011;50211;52.768;12.124;2023-07-31T13:29:34;5.28;;;2.67;;
64011;SDS011;50211;52.768;12.124;2023-07-31T13:32:00;5.25;;;2.53;;
64011;SDS011;50211;52.768;12.124;2023-07-31T13:34:25;3.47;;;2.35;;
64011;SDS011;50211;52.768;12.124;2023-07-31T13:36:51;4.35;;;2.53;;
64011;SDS011;50211;52.768;12.124;2023-07-31T13:39:16;4.50;;;2.65;;
64011;SDS011;50211;52.768;12.124;2023-07-31T13:41:42;5.63;;;2.70;;
64011;SDS011;50211;52.768;12.124;2023-07-31T13:44:07;6.80;;;3.00;;
64011;SDS011;50211;52.768;12.124;2023-07-31T13:46:32;5.68;;;2.40;;
64011;SDS011;50211;52.768;12.124;2023-07-31T13:48:58;5.60;;;2.63;;
64011;SDS011;50211;52.768;12.124;2023-07-31T13:51:24;3.78;;;2.10;;
64011;SDS011;50211;52.768;12.124;2023-07-31T13:53:50;5.60;;;2.38;;
64011;SDS011;50211;52.768;12.124;2023-07-31T13:56:16;5.40;;;2.45;;
64011;SDS011;50211;52.768;12.124;2023-07-31T13:58:41;5.88;;;2.38;;
64011;SDS011;50211;52.768;12.124;2023-07-31T14:01:07;3.83;;;2.15;;
64011;SDS011;50211;52.768;12.124;2023-07-31T14:03:32;4.55;;;2.30;;
64011;SDS011;50211;52.768;12.124;2023-07-31T14:05:58;5.00;;;2.38;;
64011;SDS011;50211;52.768;12.124;2023-07-31T14:08:24;4.18;;;2.42;;
64011;SDS011;50211;52.768;12.124;2023-07-31T14:10:49;4.43;;;1.90;;
64011;SDS011;50211;52.768;12.124;2023-07-31T14:13:15;4.55;;;2.30;;
64011;SDS011;50211;52.768;12.124;2023-07-31T14:15:43;2.70;;;1.83;;
64011;SDS011;50211;52.768;12.124;2023-07-31T14:18:09;5.50;;;2.25;;
64011;SDS011;50211;52.768;12.124;2023-07-31T14:20:35;3.53;;;2.05;;
64011;SDS011;50211;52.768;12.124;2023-07-31T14:23:01;4.65;;;2.15;;
64011;SDS011;50211;52.768;12.124;2023-07-31T14:25:27;7.25;;;2.90;;
64011;SDS011;50211;52.768;12.124;2023-07-31T14:27:53;15.52;;;3.03;;
64011;SDS011;50211;52.768;12.124;2023-07-31T14:30:18;4.82;;;2.30;;
64011;SDS011;50211;52.768;12.124;2023-07-31T14:32:44;6.72;;;2.40;;
64011;SDS011;50211;52.768;12.124;2023-07-31T14:35:10;3.53;;;2.47;;
64011;SDS011;50211;52.768;12.124;2023-07-31T14:37:39;7.50;;;2.70;;
64011;SDS011;50211;52.768;12.124;2023-07-31T14:40:07;9.93;;;2.78;;